Time;durP1;ratioP1;P1;durP2;ratioP2;P2;SDS_P1;SDS_P2;PMS_P1;PMS_P2;Temp;Humidity;BMP_temperature;BMP_pressure;BME280_temperature;BME280_humidity;BME280_pressure;Samples;Min_cycle;Max_cycle;Signal;HPM_P1;HPM_P2
2022/11/06 00:01:49;;;;;;;166.70;96.55;;;;;;;8.08;92.98;94509.50;1529843;93;21153;-85
2022/11/06 00:04:16;;;;;;;143.95;85.05;;;;;;;8.09;93.39;94508.91;1530145;93;21604;-85
2022/11/06 00:06:48;;;;;;;154.35;89.92;;;;;;;8.13;93.60;94510.35;1529933;93;21620;-86
2022/11/06 00:09:19;;;;;;;153.95;87.25;;;;;;;8.15;93.45;94509.89;1530320;93;21772;-85
2022/11/06 00:11:49;;;;;;;150.85;84.67;;;;;;;8.13;93.35;94499.39;1529994;93;21678;-85
2022/11/06 00:14:18;;;;;;;130.78;77.27;;;;;;;8.07;93.13;94507.97;1529936;92;21106;-85
2022/11/06 00:16:46;;;;;;;139.03;78.87;;;;;;;8.01;93.21;94502.09;1511346;93;21190;-85
2022/11/06 00:19:15;;;;;;;128.53;72.15;;;;;;;7.94;93.11;94496.24;1563104;88;21082;-85
2022/11/06 00:21:44;;;;;;;150.45;81.53;;;;;;;7.90;93.52;94503.77;1630895;88;21290;-84
2022/11/06 00:24:12;;;;;;;136.70;75.50;;;;;;;7.84;93.59;94506.89;1634062;84;20975;-85
2022/11/06 00:26:39;;;;;;;137.82;75.83;;;;;;;7.78;93.84;94503.17;1698892;82;20971;-85
2022/11/06 00:29:08;;;;;;;122.40;66.28;;;;;;;7.73;94.01;94505.05;1697763;83;21132;-85
2022/11/06 00:31:36;;;;;;;116.28;66.90;;;;;;;7.72;94.22;94502.77;1697913;83;21074;-83
2022/11/06 00:34:06;;;;;;;109.42;60.25;;;;;;;7.72;94.38;94507.63;1697773;83;21266;-86
2022/11/06 00:36:34;;;;;;;112.83;66.07;;;;;;;7.76;94.87;94506.16;1698241;84;21050;-85
2022/11/06 00:39:01;;;;;;;126.53;69.50;;;;;;;7.86;95.59;94513.31;1697698;84;21014;-85
2022/11/06 00:41:28;;;;;;;120.60;65.78;;;;;;;7.93;95.50;94513.10;1697691;84;21065;-85
2022/11/06 00:43:58;;;;;;;101.38;61.18;;;;;;;7.98;95.24;94508.45;1698039;83;21077;-85
2022/11/06 00:46:26;;;;;;;111.42;60.43;;;;;;;8.01;95.21;94516.56;1697736;84;21815;-87
2022/11/06 00:48:53;;;;;;;106.45;59.40;;;;;;;8.08;95.15;94514.98;1698691;84;20987;-86
2022/11/06 00:51:28;;;;;;;123.07;69.70;;;;;;;8.10;94.83;94515.30;1697869;83;21069;-85
2022/11/06 00:54:00;;;;;;;119.65;70.60;;;;;;;8.07;94.62;94514.06;1576513;91;21095;-85
2022/11/06 00:56:28;;;;;;;117.05;69.27;;;;;;;8.04;94.61;94505.35;1577258;91;20988;-85
2022/11/06 00:59:01;;;;;;;120.15;71.67;;;;;;;8.02;94.77;94513.21;1576974;91;21182;-85
2022/11/06 01:01:35;;;;;;;109.30;62.88;;;;;;;8.02;94.33;94509.88;1576721;91;21040;-85
2022/11/06 01:04:17;;;;;;;127.62;69.58;;;;;;;8.01;94.68;94508.35;1519046;94;21052;-83
2022/11/06 01:06:47;;;;;;;124.25;70.10;;;;;;;8.09;94.97;94515.14;1495946;96;21663;-85
2022/11/06 01:09:17;;;;;;;131.57;71.02;;;;;;;8.07;94.39;94514.81;1455556;98;21029;-85
2022/11/06 01:11:49;;;;;;;109.97;65.37;;;;;;;8.03;94.09;94520.25;1488961;94;21059;-85
2022/11/06 01:14:20;;;;;;;113.12;63.28;;;;;;;7.96;94.11;94515.75;1488294;96;21091;-85
2022/11/06 01:16:49;;;;;;;108.95;60.83;;;;;;;7.98;94.61;94517.44;1487636;96;21139;-84
2022/11/06 01:19:17;;;;;;;108.87;62.27;;;;;;;8.06;94.91;94512.53;1487951;96;21145;-85
2022/11/06 01:21:47;;;;;;;97.27;59.20;;;;;;;8.06;94.44;94510.54;1488001;96;21135;-86
2022/11/06 01:24:20;;;;;;;104.92;55.65;;;;;;;8.05;94.29;94504.90;1487710;96;21635;-85
2022/11/06 01:26:47;;;;;;;93.72;54.85;;;;;;;8.07;94.32;94505.23;1487416;96;21058;-85
2022/11/06 01:29:16;;;;;;;106.63;61.53;;;;;;;8.10;94.23;94510.45;1475837;97;21045;-84
2022/11/06 01:31:48;;;;;;;112.60;65.55;;;;;;;8.11;94.04;94505.88;1486321;96;21184;-85
2022/11/06 01:34:15;;;;;;;109.05;65.78;;;;;;;8.07;93.67;94505.23;1490607;94;21079;-84
2022/11/06 01:36:45;;;;;;;103.67;60.98;;;;;;;8.00;93.57;94499.19;1512501;94;21213;-84
2022/11/06 01:39:14;;;;;;;98.50;57.95;;;;;;;7.98;94.09;94496.91;1479718;95;21568;-84
2022/11/06 01:41:48;;;;;;;95.40;55.78;;;;;;;7.99;94.00;94499.80;1536359;93;21482;-85
2022/11/06 01:44:43;;;;;;;102.40;57.33;;;;;;;8.00;93.80;94497.81;1535620;92;21720;-84
2022/11/06 01:47:25;;;;;;;104.85;60.00;;;;;;;8.02;94.00;94497.56;1535525;93;21462;-84
2022/11/06 01:49:57;;;;;;;104.25;59.42;;;;;;;8.05;94.23;94497.30;1536196;92;21183;-84
2022/11/06 01:52:26;;;;;;;110.95;58.73;;;;;;;8.08;94.07;94499.91;1468024;97;21169;-83
2022/11/06 01:54:57;;;;;;;124.18;61.15;;;;;;;8.12;93.88;94506.08;1515227;94;21013;-83
2022/11/06 01:57:24;;;;;;;111.00;59.60;;;;;;;8.10;93.67;94497.50;1517056;94;21206;-84
2022/11/06 01:59:51;;;;;;;117.93;61.40;;;;;;;8.13;93.65;94506.83;1493534;95;21022;-85
2022/11/06 02:02:18;;;;;;;112.12;61.80;;;;;;;8.13;93.56;94502.12;1478073;95;21356;-86
2022/11/06 02:04:47;;;;;;;111.97;63.73;;;;;;;8.16;93.82;94507.32;1570096;91;21011;-85
2022/11/06 02:07:16;;;;;;;110.00;63.52;;;;;;;8.18;93.54;94504.94;1654954;86;21007;-85
2022/11/06 02:09:42;;;;;;;121.33;67.22;;;;;;;8.12;92.93;94512.92;1658326;86;21146;-84
2022/11/06 02:12:44;;;;;;;109.63;60.75;;;;;;;8.06;92.82;94510.54;1657943;86;21149;-85
2022/11/06 02:15:37;;;;;;;96.67;59.03;;;;;;;8.01;92.75;94510.30;1599704;89;21919;-85
2022/11/06 02:18:19;;;;;;;106.47;60.65;;;;;;;7.91;92.71;94509.41;1636612;87;21029;-84
2022/11/06 02:21:24;;;;;;;99.87;56.70;;;;;;;7.79;92.73;94508.02;1640800;87;21032;-84
2022/11/06 02:24:21;;;;;;;104.78;62.55;;;;;;;7.69;92.93;94508.49;1641813;87;21614;-85
2022/11/06 02:27:13;;;;;;;121.25;63.25;;;;;;;7.68;93.77;94512.44;1610803;89;20973;-86
2022/11/06 02:29:55;;;;;;;123.05;67.35;;;;;;;7.72;93.90;94515.08;1558207;91;21148;-85
2022/11/06 02:32:50;;;;;;;124.78;70.32;;;;;;;7.69;93.91;94526.29;1558178;92;21488;-84
2022/11/06 02:35:41;;;;;;;115.25;62.95;;;;;;;7.72;94.41;94528.16;1438393;99;21145;-85
2022/11/06 02:38:17;;;;;;;109.40;61.80;;;;;;;7.80;94.39;94526.77;1421602;99;21173;-85
2022/11/06 02:41:00;;;;;;;110.90;59.73;;;;;;;7.82;94.18;94531.20;1405962;99;21261;-85
2022/11/06 02:43:42;;;;;;;107.40;61.48;;;;;;;7.84;94.77;94527.43;1421740;99;21779;-85
2022/11/06 02:46:13;;;;;;;100.62;56.75;;;;;;;7.95;95.23;94528.49;1421008;99;28288;-84
2022/11/06 02:48:46;;;;;;;105.12;59.35;;;;;;;8.01;94.67;94528.89;1421675;99;22043;-84
2022/11/06 02:51:16;;;;;;;108.83;61.92;;;;;;;8.00;94.35;94534.21;1419360;99;21181;-86
2022/11/06 02:53:43;;;;;;;113.05;65.12;;;;;;;7.96;94.09;94536.28;1414308;101;21131;-86
2022/11/06 02:56:15;;;;;;;129.63;68.05;;;;;;;7.98;94.32;94531.14;1413766;101;21840;-85
2022/11/06 02:58:54;;;;;;;;;;;;;;;8.04;94.44;94532.75;1415923;101;21736;-86
2022/11/06 03:01:32;;;;;;;114.35;63.98;;;;;;;8.07;94.03;94527.14;1416917;100;20214;-85
2022/11/06 03:04:04;;;;;;;107.58;62.43;;;;;;;8.02;93.57;94541.39;1421259;98;21139;-85
2022/11/06 03:06:41;;;;;;;117.05;64.42;;;;;;;7.98;93.64;94534.47;1420824;101;21547;-85
2022/11/06 03:09:12;;;;;;;114.75;62.95;;;;;;;7.97;93.49;94528.23;1400146;102;21190;-85
2022/11/06 03:11:38;;;;;;;101.78;60.03;;;;;;;7.96;93.35;94530.03;1402419;101;21325;-85
2022/11/06 03:14:25;;;;;;;114.22;64.30;;;;;;;7.91;93.32;94538.17;1411984;101;21143;-85
2022/11/06 03:17:24;;;;;;;98.10;60.98;;;;;;;7.87;93.52;94542.23;1475724;95;21070;-83
2022/11/06 03:19:55;;;;;;;111.90;60.83;;;;;;;7.86;93.91;94545.56;1413062;100;21095;-85
2022/11/06 03:22:41;;;;;;;100.27;58.42;;;;;;;7.89;93.97;94557.02;1412787;100;21837;-85
2022/11/06 03:25:27;;;;;;;100.70;58.85;;;;;;;7.88;94.07;94551.37;1388198;102;21558;-85
2022/11/06 03:28:06;;;;;;;102.47;59.70;;;;;;;7.90;94.32;94544.85;1428598;100;21083;-84
2022/11/06 03:30:37;;;;;;;108.47;59.40;;;;;;;7.94;94.62;94557.88;1433984;97;21062;-85
2022/11/06 03:33:20;;;;;;;105.97;58.78;;;;;;;8.00;94.59;94555.34;1471605;97;21125;-84
2022/11/06 03:36:03;;;;;;;96.35;56.10;;;;;;;8.06;94.44;94561.22;1449576;99;21294;-84
2022/11/06 03:38:34;;;;;;;111.90;62.13;;;;;;;8.03;94.37;94562.09;1449335;99;21041;-84
2022/11/06 03:41:08;;;;;;;94.37;55.50;;;;;;;8.02;94.71;94567.41;1449567;99;21053;-86
2022/11/06 03:43:35;;;;;;;95.28;55.25;;;;;;;8.03;94.54;94571.69;1431061;100;21108;-85
2022/11/06 03:46:08;;;;;;;103.07;55.95;;;;;;;7.93;93.84;94580.98;1431059;99;21060;-85
2022/11/06 03:48:38;;;;;;;;;;;;;;;7.87;94.38;94580.58;1432858;100;21142;-85
2022/11/06 03:51:37;;;;;;;117.28;68.17;;;;;;;7.86;94.33;94585.27;1393200;101;20188;-84
2022/11/06 03:54:14;;;;;;;115.10;70.28;;;;;;;7.81;94.47;94585.03;1316114;109;21108;-84
2022/11/06 03:56:50;;;;;;;115.85;64.92;;;;;;;7.78;94.68;94589.42;1315488;107;21212;-84
2022/11/06 03:59:22;;;;;;;104.83;61.63;;;;;;;7.77;94.73;94582.41;1296873;109;21175;-85
2022/11/06 04:01:46;;;;;;;96.78;57.03;;;;;;;7.79;94.65;94588.80;1325702;105;21345;-84
2022/11/06 04:04:25;;;;;;;98.67;58.28;;;;;;;7.75;94.41;94589.50;1353749;106;21140;-85
2022/11/06 04:06:57;;;;;;;97.55;58.10;;;;;;;7.68;94.19;94604.16;1382708;103;21119;-85
2022/11/06 04:15:01;;;;;;;84.70;52.15;;;;;;;7.51;94.66;94599.16;1357158;104;21708;-84
2022/11/06 04:17:28;;;;;;;88.72;53.02;;;;;;;7.44;94.62;94602.84;1355361;105;21179;-85
2022/11/06 04:20:02;;;;;;;89.65;54.45;;;;;;;7.44;94.83;94596.00;1340991;107;21230;-85
2022/11/06 04:22:52;;;;;;;92.53;51.60;;;;;;;7.41;94.96;94602.34;1309436;108;21206;-85
2022/11/06 04:28:52;;;;;;;83.45;49.83;;;;;;;7.38;95.13;94600.44;1262880;112;21334;-85
2022/11/06 04:31:43;;;;;;;86.90;49.73;;;;;;;7.36;95.27;94605.57;1229208;115;21673;-84
2022/11/06 04:34:18;;;;;;;77.10;44.90;;;;;;;7.30;95.37;94609.28;1273901;112;21226;-85
2022/11/06 04:37:09;;;;;;;90.80;51.70;;;;;;;7.26;95.74;94610.73;1272708;112;21133;-85
2022/11/06 04:40:02;;;;;;;83.45;52.88;;;;;;;7.25;96.12;94611.93;1273390;111;21629;-85
2022/11/06 04:42:47;;;;;;;;;;;;;;;7.31;96.51;94607.47;1277742;112;21268;-84
2022/11/06 04:45:32;;;;;;;90.53;52.50;;;;;;;7.38;96.66;94612.75;1276205;110;20500;-84
2022/11/06 04:47:59;;;;;;;81.17;50.78;;;;;;;7.43;96.88;94601.30;1284919;110;21232;-85
2022/11/06 04:50:26;;;;;;;96.08;54.48;;;;;;;7.50;97.32;94609.32;1295077;110;21216;-85
2022/11/06 04:52:53;;;;;;;90.60;53.05;;;;;;;7.62;97.64;94609.99;1278493;110;21138;-85
2022/11/06 04:55:21;;;;;;;84.92;53.58;;;;;;;7.74;97.30;94612.00;1278101;110;21322;-86
2022/11/06 04:57:47;;;;;;;95.85;57.40;;;;;;;7.80;96.93;94608.14;1277460;110;21190;-85
2022/11/06 05:00:16;;;;;;;95.70;56.98;;;;;;;7.78;96.51;94615.44;1303128;109;21111;-86
2022/11/06 05:02:42;;;;;;;102.82;58.23;;;;;;;7.78;96.25;94611.91;1338347;102;21407;-86
2022/11/06 05:05:09;;;;;;;91.87;54.15;;;;;;;7.74;96.14;94616.72;1367078;102;21330;-87
2022/11/06 05:07:36;;;;;;;91.95;52.30;;;;;;;7.76;96.49;94617.84;1367513;102;21272;-86
2022/11/06 05:10:04;;;;;;;82.57;52.80;;;;;;;7.86;96.81;94619.50;1367533;102;21148;-86
2022/11/06 05:12:32;;;;;;;88.37;55.15;;;;;;;7.96;96.60;94625.30;1367676;102;21488;-80
2022/11/06 05:15:00;;;;;;;88.45;53.33;;;;;;;8.03;96.36;94625.09;1365497;102;21123;-85
2022/11/06 05:17:27;;;;;;;76.85;46.23;;;;;;;8.12;96.18;94623.10;1381122;102;21146;-85
2022/11/06 05:19:54;;;;;;;84.55;47.48;;;;;;;8.18;95.44;94627.65;1446710;97;21346;-84
2022/11/06 05:25:08;;;;;;;83.50;48.83;;;;;;;8.18;95.10;94638.61;1578773;83;21022;-85
2022/11/06 05:27:39;;;;;;;85.72;48.78;;;;;;;8.20;94.95;94642.27;1697670;84;21030;-85
2022/11/06 05:30:08;;;;;;;81.02;47.35;;;;;;;8.15;94.48;94649.04;1698027;84;21014;-85
2022/11/06 05:32:35;;;;;;;86.20;45.23;;;;;;;8.16;95.03;94641.58;1698565;82;21250;-85
2022/11/06 05:35:04;;;;;;;90.57;50.35;;;;;;;8.21;95.12;94645.95;1697762;83;21046;-85
2022/11/06 05:37:32;;;;;;;89.50;50.58;;;;;;;8.24;94.40;94649.19;1697833;83;21054;-85
2022/11/06 05:39:59;;;;;;;89.85;50.17;;;;;;;8.17;94.09;94654.85;1687938;84;20974;-85
2022/11/06 05:42:27;;;;;;;90.97;50.48;;;;;;;8.13;94.20;94658.30;1698436;83;21038;-85
2022/11/06 05:44:55;;;;;;;78.28;45.38;;;;;;;8.11;94.39;94664.03;1698341;83;20943;-84
2022/11/06 05:47:22;;;;;;;77.47;41.92;;;;;;;8.13;94.75;94671.22;1698407;84;21093;-85
2022/11/06 05:49:49;;;;;;;83.00;44.48;;;;;;;8.17;94.96;94669.92;1702546;84;21062;-85
2022/11/06 05:52:16;;;;;;;74.05;42.48;;;;;;;8.19;94.74;94668.91;1698776;83;21593;-85
2022/11/06 05:54:43;;;;;;;74.45;39.55;;;;;;;8.21;94.99;94669.25;1698350;84;21045;-85
2022/11/06 05:57:11;;;;;;;85.50;41.95;;;;;;;8.25;95.24;94665.80;1698328;83;21307;-85
2022/11/06 05:59:43;;;;;;;71.22;40.43;;;;;;;8.29;95.48;94671.95;1656341;86;21037;-85
2022/11/06 06:02:10;;;;;;;71.65;40.00;;;;;;;8.31;95.41;94677.79;1665570;85;21557;-84
2022/11/06 06:04:38;;;;;;;73.30;36.45;;;;;;;8.36;95.99;94677.25;1663970;86;21513;-85
2022/11/06 06:07:05;;;;;;;66.55;36.25;;;;;;;8.48;96.21;94674.38;1698022;83;21585;-85
2022/11/06 06:09:32;;;;;;;69.25;36.95;;;;;;;8.54;95.84;94683.00;1698135;84;21305;-85
2022/11/06 06:12:00;;;;;;;67.12;38.50;;;;;;;8.57;96.04;94679.38;1688044;84;21538;-85
2022/11/06 06:14:31;;;;;;;67.50;38.25;;;;;;;8.65;96.27;94682.69;1697873;83;21007;-85
2022/11/06 06:16:58;;;;;;;57.30;34.45;;;;;;;8.72;96.00;94682.47;1663779;86;20986;-86
2022/11/06 06:19:27;;;;;;;55.52;32.03;;;;;;;8.77;96.12;94684.08;1697844;83;20994;-85
2022/11/06 06:21:56;;;;;;;53.35;33.45;;;;;;;8.83;95.77;94680.95;1703084;84;21166;-84
2022/11/06 06:24:26;;;;;;;60.70;35.73;;;;;;;8.86;95.56;94691.08;1679880;84;20959;-84
2022/11/06 06:26:55;;;;;;;64.58;35.43;;;;;;;8.88;95.41;94687.87;1697681;84;20979;-85
2022/11/06 06:29:24;;;;;;;67.97;37.95;;;;;;;8.89;95.05;94697.05;1700167;83;21022;-85
2022/11/06 06:31:51;;;;;;;73.47;39.78;;;;;;;8.85;94.92;94703.25;1670714;85;21073;-85
2022/11/06 06:34:19;;;;;;;65.40;35.88;;;;;;;8.81;94.84;94702.56;1703128;84;41090;-86
2022/11/06 06:36:51;;;;;;;72.70;39.18;;;;;;;8.83;94.74;94702.14;1697765;84;20963;-86
2022/11/06 06:39:18;;;;;;;66.47;37.00;;;;;;;8.78;94.69;94707.56;1663904;86;21022;-86
2022/11/06 06:41:47;;;;;;;67.00;37.03;;;;;;;8.79;95.04;94710.47;1697851;84;20971;-86
2022/11/06 06:44:14;;;;;;;86.30;48.60;;;;;;;8.78;94.92;94707.56;1664006;86;21009;-86
2022/11/06 06:46:42;;;;;;;120.10;69.97;;;;;;;8.73;94.76;94708.10;1663944;86;21113;-86
2022/11/06 06:49:09;;;;;;;131.82;73.33;;;;;;;8.69;94.98;94714.30;1663767;86;21580;-85
2022/11/06 06:51:37;;;;;;;135.10;74.12;;;;;;;8.70;95.10;94715.84;1697606;83;21026;-85
2022/11/06 06:54:04;;;;;;;189.32;111.05;;;;;;;8.71;95.07;94709.14;1663879;86;21026;-84
2022/11/06 06:56:31;;;;;;;153.53;95.07;;;;;;;8.69;95.25;94703.33;1698009;83;21414;-86
2022/11/06 06:58:58;;;;;;;128.12;74.40;;;;;;;8.71;95.40;94700.13;1698623;84;22042;-85
2022/11/06 07:01:25;;;;;;;124.30;72.65;;;;;;;8.74;95.36;94712.97;1664861;86;21061;-86
2022/11/06 07:03:52;;;;;;;125.47;73.50;;;;;;;8.74;95.07;94711.02;1698008;84;21054;-85
2022/11/06 07:06:20;;;;;;;110.28;69.12;;;;;;;8.75;95.16;94713.92;1663951;86;20970;-85
2022/11/06 07:08:47;;;;;;;115.62;70.42;;;;;;;8.77;95.28;94708.77;1697965;84;21054;-85
2022/11/06 07:11:14;;;;;;;103.55;65.20;;;;;;;8.78;95.19;94714.41;1664250;86;21252;-85
2022/11/06 07:13:42;;;;;;;98.12;60.05;;;;;;;8.78;95.12;94716.41;1648122;86;20977;-85
2022/11/06 07:16:10;;;;;;;105.55;66.40;;;;;;;8.81;95.24;94717.65;1697906;83;21026;-85
2022/11/06 07:18:38;;;;;;;95.83;62.85;;;;;;;8.83;95.24;94719.35;1690197;83;21374;-86
2022/11/06 07:21:06;;;;;;;103.17;63.25;;;;;;;8.87;95.25;94720.04;1683673;83;21031;-86
2022/11/06 07:23:34;;;;;;;106.40;66.90;;;;;;;8.86;95.19;94725.36;1669347;86;21210;-85
2022/11/06 07:26:03;;;;;;;97.60;64.50;;;;;;;8.88;95.49;94723.53;1668738;86;21514;-85
2022/11/06 07:28:31;;;;;;;90.65;60.65;;;;;;;8.90;95.45;94724.65;1668078;86;20979;-84
2022/11/06 07:31:00;;;;;;;97.82;60.95;;;;;;;8.93;95.32;94725.14;1667845;86;21070;-85
2022/11/06 07:33:26;;;;;;;97.72;61.88;;;;;;;8.93;95.24;94728.67;1667982;86;21045;-86
2022/11/06 07:35:54;;;;;;;94.55;57.53;;;;;;;8.95;95.20;94723.52;1668191;86;21235;-87
2022/11/06 07:38:23;;;;;;;95.32;62.40;;;;;;;8.99;95.39;94726.13;1668146;86;20944;-85
2022/11/06 07:40:49;;;;;;;97.22;59.48;;;;;;;9.02;95.38;94719.77;1668322;86;21034;-85
2022/11/06 07:43:18;;;;;;;94.55;61.30;;;;;;;9.04;95.53;94720.88;1658502;85;20995;-85
2022/11/06 07:45:45;;;;;;;93.45;58.90;;;;;;;9.07;95.49;94721.37;1668296;85;21505;-83
2022/11/06 07:48:12;;;;;;;72.85;47.62;;;;;;;9.12;95.49;94724.17;1668197;86;21126;-85
2022/11/06 07:50:41;;;;;;;71.62;47.83;;;;;;;9.15;95.48;94721.92;1668587;86;20976;-86
2022/11/06 07:53:08;;;;;;;72.25;47.40;;;;;;;9.17;95.44;94726.37;1668487;85;21156;-85
2022/11/06 07:55:35;;;;;;;83.03;50.17;;;;;;;9.20;95.57;94719.41;1671905;83;21006;-85
2022/11/06 07:58:03;;;;;;;78.47;48.05;;;;;;;9.20;95.61;94718.04;1669929;85;20962;-85
2022/11/06 08:00:30;;;;;;;73.80;46.20;;;;;;;9.26;95.78;94721.02;1669956;85;21158;-86
2022/11/06 08:02:57;;;;;;;60.08;42.93;;;;;;;9.29;95.77;94718.13;1670605;85;21010;-85
2022/11/06 08:05:25;;;;;;;78.65;46.35;;;;;;;9.33;95.69;94729.02;1661015;84;21110;-85
2022/11/06 08:07:57;;;;;;;69.12;46.53;;;;;;;9.35;95.69;94718.36;1670434;85;21014;-86
2022/11/06 08:10:24;;;;;;;80.72;53.55;;;;;;;9.39;95.84;94721.76;1670685;83;21011;-87
2022/11/06 08:12:52;;;;;;;78.28;52.78;;;;;;;9.42;95.99;94721.66;1670113;85;21395;-86
2022/11/06 08:15:20;;;;;;;73.47;49.20;;;;;;;9.51;96.02;94727.27;1677549;85;20999;-87
2022/11/06 08:17:47;;;;;;;73.20;51.48;;;;;;;9.55;95.88;94730.66;1670222;85;21072;-86
2022/11/06 08:20:15;;;;;;;65.90;47.17;;;;;;;9.62;95.98;94724.94;1682901;85;21015;-85
2022/11/06 08:22:43;;;;;;;64.45;45.60;;;;;;;9.73;96.15;94727.34;1670584;85;21081;-86
2022/11/06 08:25:12;;;;;;;74.90;48.98;;;;;;;9.82;95.96;94730.95;1660557;85;21838;-86
2022/11/06 08:27:39;;;;;;;62.35;43.75;;;;;;;9.89;95.83;94731.33;1671093;83;21002;-86
2022/11/06 08:30:09;;;;;;;68.52;48.30;;;;;;;9.98;95.83;94730.06;1669946;85;21022;-86
2022/11/06 08:32:37;;;;;;;71.87;51.10;;;;;;;10.04;95.68;94725.55;1671746;85;21018;-85
2022/11/06 08:35:05;;;;;;;60.25;45.23;;;;;;;10.17;95.73;94724.92;1671062;85;20978;-86
2022/11/06 08:37:33;;;;;;;65.15;44.10;;;;;;;10.30;95.24;94736.63;1671131;83;21408;-85
2022/11/06 08:40:00;;;;;;;65.45;46.45;;;;;;;10.33;94.36;94738.52;1681054;84;20972;-86
2022/11/06 08:42:29;;;;;;;71.95;43.55;;;;;;;10.29;94.13;94738.62;1672597;83;20998;-86
2022/11/06 08:44:56;;;;;;;63.63;40.52;;;;;;;10.32;93.96;94745.23;1670040;86;20975;-85
2022/11/06 08:47:24;;;;;;;69.07;45.15;;;;;;;10.38;93.96;94744.19;1670046;85;20970;-83
2022/11/06 08:49:51;;;;;;;55.30;39.85;;;;;;;10.41;93.52;94741.17;1670082;85;21827;-86
2022/11/06 08:52:18;;;;;;;58.33;42.75;;;;;;;10.42;93.51;94742.70;1670140;85;20979;-86
2022/11/06 08:54:45;;;;;;;64.60;41.63;;;;;;;10.43;93.55;94741.48;1669906;85;21070;-86
2022/11/06 08:57:13;;;;;;;60.73;41.33;;;;;;;10.46;93.57;94744.72;1670109;85;21042;-86
2022/11/06 08:59:43;;;;;;;65.28;41.23;;;;;;;10.48;93.51;94747.78;1669888;85;21419;-85
2022/11/06 09:02:11;;;;;;;64.10;41.23;;;;;;;10.53;93.49;94744.48;1669879;85;21395;-86
2022/11/06 09:04:42;;;;;;;69.65;43.80;;;;;;;10.57;93.46;94736.87;1669882;85;21082;-85
2022/11/06 09:07:11;;;;;;;71.20;48.98;;;;;;;10.62;93.70;94736.29;1670653;85;21042;-87
2022/11/06 09:09:40;;;;;;;60.90;45.05;;;;;;;10.67;93.94;94740.61;1670945;86;21034;-85
2022/11/06 09:12:08;;;;;;;58.95;43.20;;;;;;;10.74;93.65;94737.00;1671112;83;21073;-85
2022/11/06 09:14:35;;;;;;;65.72;45.28;;;;;;;10.79;93.64;94741.17;1671126;85;21150;-84
2022/11/06 09:17:03;;;;;;;61.68;45.25;;;;;;;10.86;93.33;94741.69;1671634;85;20998;-83
2022/11/06 09:19:33;;;;;;;69.45;46.05;;;;;;;10.88;93.09;94743.38;1670502;85;20903;-85
2022/11/06 09:22:00;;;;;;;62.55;42.17;;;;;;;10.89;93.09;94745.50;1671788;85;21034;-84
2022/11/06 09:24:29;;;;;;;57.80;38.48;;;;;;;10.92;93.72;94743.23;1683627;85;21499;-86
2022/11/06 09:26:57;;;;;;;62.30;41.65;;;;;;;11.03;94.04;94744.39;1670266;85;21156;-86
2022/11/06 09:29:24;;;;;;;56.73;38.75;;;;;;;11.15;93.65;94743.53;1670127;85;20935;-86
2022/11/06 09:31:53;;;;;;;64.75;40.35;;;;;;;11.25;93.17;94738.24;1671994;85;21007;-84
2022/11/06 09:34:20;;;;;;;69.65;43.20;;;;;;;11.30;92.73;94741.78;1673071;85;21155;-86
2022/11/06 09:36:49;;;;;;;58.28;41.40;;;;;;;11.33;92.28;94738.74;1671099;85;21049;-85
2022/11/06 09:39:16;;;;;;;60.08;40.40;;;;;;;11.37;92.33;94745.62;1670522;85;21291;-85
2022/11/06 09:42:23;;;;;;;61.30;40.20;;;;;;;11.41;92.08;94743.53;1670332;85;21006;-86
2022/11/06 09:45:16;;;;;;;55.80;38.20;;;;;;;11.43;91.76;94742.47;1670077;85;21037;-85
2022/11/06 09:47:48;;;;;;;54.13;36.83;;;;;;;11.48;91.57;94747.97;1659585;86;21026;-85
2022/11/06 09:50:20;;;;;;;48.35;33.88;;;;;;;11.51;91.51;94743.71;1683801;85;20923;-86
2022/11/06 09:53:03;;;;;;;54.45;32.90;;;;;;;11.57;91.16;94739.16;1660594;85;21022;-85
2022/11/06 09:55:33;;;;;;;49.90;32.17;;;;;;;11.60;90.94;94747.14;1683166;85;21190;-84
2022/11/06 09:58:24;;;;;;;37.42;26.65;;;;;;;11.59;90.46;94745.61;1617067;88;21153;-87
2022/11/06 10:00:52;;;;;;;35.38;25.02;;;;;;;11.58;90.26;94740.73;1579025;90;21150;-87
2022/11/06 10:03:28;;;;;;;34.08;25.55;;;;;;;11.57;90.23;94735.66;1578816;90;21088;-86
2022/11/06 10:05:55;;;;;;;39.30;26.73;;;;;;;11.57;90.30;94733.66;1526966;93;21776;-86
2022/11/06 10:08:27;;;;;;;42.05;27.07;;;;;;;11.64;90.43;94735.37;1511256;93;21614;-88
2022/11/06 10:11:16;;;;;;;46.63;28.95;;;;;;;11.71;90.16;94728.22;1529892;93;21107;-86
2022/11/06 10:14:01;;;;;;;31.87;20.43;;;;;;;11.75;89.96;94737.85;1530111;93;21011;-85
2022/11/06 10:17:10;;;;;;;22.87;14.83;;;;;;;11.86;89.92;94736.08;1530749;93;21248;-86
2022/11/06 10:19:58;;;;;;;21.15;14.10;;;;;;;11.95;88.99;94727.81;1528087;93;21200;-85
2022/11/06 10:22:39;;;;;;;17.12;12.93;;;;;;;11.97;88.21;94725.37;1486258;96;21659;-86
2022/11/06 10:25:19;;;;;;;19.05;12.50;;;;;;;11.98;87.52;94725.52;1502695;95;21245;-86
2022/11/06 10:28:07;;;;;;;17.37;10.78;;;;;;;11.94;87.04;94725.66;1509793;95;21107;-87
2022/11/06 10:30:47;;;;;;;13.60;10.65;;;;;;;11.90;86.44;94725.04;1488364;95;21136;-85
2022/11/06 10:33:23;;;;;;;13.40;10.93;;;;;;;11.85;86.52;94722.89;1489125;96;21966;-86
2022/11/06 10:36:14;;;;;;;16.90;11.25;;;;;;;11.85;86.58;94722.11;1449685;97;21110;-87
2022/11/06 10:38:46;;;;;;;17.60;12.15;;;;;;;11.84;86.59;94731.61;1418380;100;21067;-88
2022/11/06 10:41:21;;;;;;;17.05;10.78;;;;;;;11.82;86.63;94726.56;1413796;100;21123;-87
2022/11/06 10:43:53;;;;;;;17.73;11.28;;;;;;;11.80;86.35;94732.36;1385264;101;21238;-86
2022/11/06 10:46:40;;;;;;;14.05;10.13;;;;;;;11.78;86.35;94724.57;1420836;99;22784;-86
2022/11/06 10:49:31;;;;;;;16.07;11.00;;;;;;;11.80;86.23;94720.74;1420713;101;21280;-85
2022/11/06 10:52:24;;;;;;;17.23;11.80;;;;;;;11.79;86.13;94719.21;1419230;101;21163;-86
2022/11/06 10:55:26;;;;;;;23.15;14.25;;;;;;;11.80;86.51;94717.98;1432884;97;21078;-86
2022/11/06 10:58:01;;;;;;;19.73;13.10;;;;;;;11.81;86.52;94711.25;1457511;94;21129;-87
2022/11/06 11:00:28;;;;;;;58.98;30.88;;;;;;;11.86;86.61;94708.52;1463379;94;21156;-85
2022/11/06 11:02:56;;;;;;;35.23;21.25;;;;;;;11.89;86.48;94712.48;1476124;94;21054;-90
2022/11/06 11:05:26;;;;;;;25.45;18.20;;;;;;;11.89;86.14;94702.83;1481546;93;21061;-84
2022/11/06 11:07:54;;;;;;;24.02;15.50;;;;;;;11.91;86.07;94706.52;1485936;96;21041;-86
2022/11/06 11:10:31;;;;;;;34.25;20.20;;;;;;;11.93;86.06;94700.69;1494555;95;22872;-85
2022/11/06 11:13:01;;;;;;;27.65;15.13;;;;;;;11.95;85.66;94707.92;1529522;93;21270;-85
2022/11/06 11:15:33;;;;;;;58.05;42.48;;;;;;;11.94;85.27;94706.98;1553727;92;21066;-86
2022/11/06 11:18:16;;;;;;;40.45;25.12;;;;;;;11.92;85.29;94704.67;1568167;91;21578;-86
2022/11/06 11:20:50;;;;;;;24.18;15.03;;;;;;;11.95;85.24;94701.03;1567784;91;21124;-87
2022/11/06 11:23:23;;;;;;;;;;;;;;;11.95;84.89;94699.65;1607035;89;21544;-85
2022/11/06 11:25:53;;;;;;;26.70;15.53;;;;;;;11.88;84.70;94699.17;1605543;89;21386;-85
2022/11/06 11:28:29;;;;;;;28.02;18.15;;;;;;;11.81;85.02;94697.47;1577475;91;21030;-87
2022/11/06 11:31:14;;;;;;;29.45;18.17;;;;;;;11.83;85.22;94699.16;1605142;89;21141;-87
2022/11/06 11:33:48;;;;;;;25.02;16.75;;;;;;;11.85;85.29;94704.19;1605541;88;20990;-86
2022/11/06 11:36:15;;;;;;;29.00;16.55;;;;;;;11.86;85.10;94696.86;1603635;88;20998;-85
2022/11/06 11:38:51;;;;;;;37.83;20.30;;;;;;;11.87;84.79;94702.52;1605828;88;21390;-88
2022/11/06 11:41:24;;;;;;;30.45;17.42;;;;;;;11.88;85.00;94699.92;1575271;89;21093;-86
2022/11/06 11:43:59;;;;;;;23.60;15.65;;;;;;;11.91;84.87;94699.00;1605469;89;21105;-87
2022/11/06 11:46:26;;;;;;;29.27;17.85;;;;;;;11.94;84.83;94699.47;1590322;90;21174;-86
2022/11/06 11:48:56;;;;;;;20.88;13.93;;;;;;;11.97;84.71;94697.80;1594697;88;21199;-86
2022/11/06 11:51:31;;;;;;;33.38;19.87;;;;;;;11.99;84.42;94683.72;1618048;88;22012;-87
2022/11/06 11:54:22;;;;;;;36.40;17.55;;;;;;;11.95;84.16;94683.70;1614496;88;21124;-87
2022/11/06 11:56:57;;;;;;;20.00;12.95;;;;;;;11.92;84.12;94680.48;1617745;88;21560;-86